createdAt,value
2022-09-11T00:01:26.008Z,7.25
2022-09-11T00:03:55.014Z,7.80
2022-09-11T00:06:29.821Z,6.65
2022-09-11T00:09:03.551Z,9.07
2022-09-11T00:11:33.302Z,8.68
2022-09-11T00:14:00.836Z,8.63
2022-09-11T00:16:29.197Z,8.32
2022-09-11T00:18:58.673Z,8.68
2022-09-11T00:21:26.745Z,7.88
2022-09-11T00:23:53.802Z,8.27
2022-09-11T00:26:22.105Z,7.70
2022-09-11T00:28:50.692Z,9.07
2022-09-11T00:31:19.717Z,6.88
2022-09-11T00:33:46.895Z,8.45
2022-09-11T00:36:17.148Z,8.38
2022-09-11T00:38:45.744Z,8.75
2022-09-11T00:41:15.603Z,7.63
2022-09-11T00:43:57.744Z,7.10
2022-09-11T00:46:31.398Z,7.68
2022-09-11T00:49:01.831Z,7.47
2022-09-11T00:51:33.814Z,9.38
2022-09-11T00:54:03.951Z,7.35
2022-09-11T00:56:35.938Z,8.20
2022-09-11T00:59:04.521Z,7.80
2022-09-11T01:01:31.766Z,7.25
2022-09-11T01:04:03.373Z,7.88
2022-09-11T01:06:30.363Z,6.78
2022-09-11T01:08:59.514Z,7.88
2022-09-11T01:11:53.489Z,7.15
2022-09-11T01:14:26.386Z,6.10
2022-09-11T01:17:27.654Z,6.15
2022-09-11T01:20:46.024Z,6.70
2022-09-11T01:23:41.016Z,6.13
2022-09-11T01:26:34.829Z,7.03
2022-09-11T01:29:19.967Z,5.68
2022-09-11T01:32:20.920Z,6.50
2022-09-11T01:35:19.566Z,6.15
2022-09-11T01:37:57.502Z,6.38
2022-09-11T01:40:55.902Z,6.20
2022-09-11T01:43:27.070Z,5.97
2022-09-11T01:48:31.925Z,6.50
2022-09-11T01:51:01.610Z,7.20
2022-09-11T01:53:34.759Z,7.32
2022-09-11T01:56:16.575Z,6.18
2022-09-11T01:58:48.465Z,6.22
2022-09-11T02:01:24.774Z,5.97
2022-09-11T02:04:10.682Z,6.07
2022-09-11T02:06:47.875Z,7.10
2022-09-11T02:09:22.411Z,5.90
2022-09-11T02:11:54.883Z,6.32
2022-09-11T02:14:31.318Z,5.95
2022-09-11T02:17:15.302Z,6.05
2022-09-11T02:19:43.224Z,5.70
2022-09-11T02:22:10.217Z,6.18
2022-09-11T02:24:37.802Z,5.78
2022-09-11T02:27:08.687Z,5.72
2022-09-11T02:29:36.321Z,5.85
2022-09-11T02:32:04.592Z,5.85
2022-09-11T02:34:36.884Z,6.13
2022-09-11T02:37:18.162Z,6.75
2022-09-11T02:40:12.223Z,5.47
2022-09-11T02:45:31.273Z,5.18
2022-09-11T02:48:36.240Z,7.00
2022-09-11T02:51:11.875Z,6.05
2022-09-11T02:54:02.232Z,6.38
2022-09-11T02:56:45.129Z,6.95
2022-09-11T02:59:22.087Z,6.75
2022-09-11T03:01:55.183Z,5.97
2022-09-11T03:04:25.325Z,6.63
2022-09-11T03:06:54.441Z,6.10
2022-09-11T03:09:21.819Z,6.25
2022-09-11T03:11:53.085Z,5.43
2022-09-11T03:14:20.105Z,5.53
2022-09-11T03:16:48.553Z,6.20
2022-09-11T03:19:15.610Z,6.15
2022-09-11T03:21:43.002Z,6.13
2022-09-11T03:24:10.544Z,5.93
2022-09-11T03:26:38.740Z,5.72
2022-09-11T03:29:05.924Z,6.05
2022-09-11T03:31:37.361Z,6.50
2022-09-11T03:34:06.681Z,6.45
2022-09-11T03:36:34.528Z,6.10
2022-09-11T03:39:02.348Z,6.63
2022-09-11T03:41:30.907Z,6.00
2022-09-11T03:43:57.847Z,7.32
2022-09-11T03:46:25.615Z,5.13
2022-09-11T03:48:53.349Z,5.63
2022-09-11T03:51:21.272Z,5.25
2022-09-11T03:53:48.294Z,5.22
2022-09-11T03:56:16.059Z,5.70
2022-09-11T03:58:48.202Z,5.22
2022-09-11T04:01:19.007Z,5.55
2022-09-11T04:03:46.606Z,5.60
2022-09-11T04:06:23.117Z,4.75
2022-09-11T04:08:50.052Z,4.80
2022-09-11T04:11:21.300Z,4.50
2022-09-11T04:13:52.123Z,5.35
2022-09-11T04:16:20.338Z,5.20
2022-09-11T04:18:54.025Z,4.93
2022-09-11T04:21:21.347Z,4.28
2022-09-11T04:23:56.314Z,4.30
2022-09-11T04:26:26.924Z,4.85
2022-09-11T04:29:00.203Z,4.95
2022-09-11T04:31:29.654Z,4.68
2022-09-11T04:33:58.166Z,4.35
2022-09-11T04:36:31.648Z,4.13
2022-09-11T04:39:00.141Z,4.72
2022-09-11T04:41:28.653Z,4.70
2022-09-11T04:44:04.801Z,4.70
2022-09-11T04:46:34.718Z,3.60
2022-09-11T04:49:04.603Z,4.45
2022-09-11T04:51:34.930Z,3.83
2022-09-11T04:54:02.443Z,4.45
2022-09-11T04:56:38.258Z,3.92
2022-09-11T04:59:13.334Z,4.90
2022-09-11T05:01:44.081Z,4.40
2022-09-11T05:04:12.868Z,4.25
2022-09-11T05:06:42.526Z,4.22
2022-09-11T05:09:12.639Z,4.15
2022-09-11T05:11:39.567Z,3.55
2022-09-11T05:14:06.969Z,3.45
2022-09-11T05:16:37.943Z,4.03
2022-09-11T05:19:05.529Z,3.72
2022-09-11T05:21:35.036Z,3.95
2022-09-11T05:24:03.045Z,3.78
2022-09-11T05:26:35.542Z,4.00
2022-09-11T05:29:11.686Z,3.55
2022-09-11T05:31:45.019Z,4.25
2022-09-11T05:34:14.789Z,3.55
2022-09-11T05:36:41.897Z,4.15
2022-09-11T05:39:10.628Z,3.63
2022-09-11T05:41:39.200Z,3.08
2022-09-11T05:44:06.404Z,3.28
2022-09-11T05:46:34.378Z,3.85
2022-09-11T05:49:03.438Z,3.72
2022-09-11T05:51:30.378Z,4.05
2022-09-11T05:53:58.844Z,3.95
2022-09-11T05:56:28.245Z,3.97
2022-09-11T05:58:59.228Z,3.35
2022-09-11T06:01:33.169Z,3.70
2022-09-11T06:04:15.184Z,3.25
2022-09-11T06:06:47.937Z,3.83
2022-09-11T06:09:16.060Z,3.78
2022-09-11T06:11:43.320Z,4.53
2022-09-11T06:14:13.151Z,3.60
2022-09-11T06:16:42.127Z,4.57
2022-09-11T06:19:12.365Z,3.75
2022-09-11T06:21:39.528Z,4.25
2022-09-11T06:24:18.723Z,3.85
2022-09-11T06:26:46.690Z,4.10
2022-09-11T06:29:16.115Z,4.18
2022-09-11T06:31:48.989Z,3.70
2022-09-11T06:34:16.290Z,3.45
2022-09-11T06:36:44.654Z,3.55
2022-09-11T06:39:13.840Z,3.45
2022-09-11T06:41:40.776Z,3.63
2022-09-11T06:44:12.807Z,4.07
2022-09-11T06:46:40.615Z,3.65
2022-09-11T06:49:09.735Z,4.13
2022-09-11T06:51:56.535Z,3.97
2022-09-11T06:54:23.487Z,3.95
2022-09-11T06:56:52.155Z,3.83
2022-09-11T06:59:19.391Z,4.68
2022-09-11T07:01:47.001Z,3.75
2022-09-11T07:04:14.074Z,4.22
2022-09-11T07:06:43.089Z,4.55
2022-09-11T07:09:12.361Z,4.90
2022-09-11T07:11:53.887Z,6.88
2022-09-11T07:18:01.913Z,5.93
2022-09-11T07:35:57.261Z,6.25
2022-09-11T07:38:24.239Z,5.90
2022-09-11T07:40:54.563Z,5.93
2022-09-11T07:43:24.727Z,6.35
2022-09-11T07:45:53.929Z,7.40
2022-09-11T07:48:30.263Z,7.53
2022-09-11T07:58:24.126Z,7.78
2022-09-11T08:00:26.632Z,8.05
2022-09-11T08:03:01.081Z,7.30
2022-09-11T08:11:49.086Z,6.70
2022-09-11T08:14:18.262Z,5.95
2022-09-11T08:17:26.050Z,6.30
2022-09-11T08:19:54.367Z,7.15
2022-09-11T08:22:22.635Z,5.53
2022-09-11T08:24:49.648Z,6.90
2022-09-11T08:27:18.794Z,7.10
2022-09-11T08:29:47.035Z,6.75
2022-09-11T08:32:14.412Z,7.47
2022-09-11T08:34:42.292Z,7.00
2022-09-11T08:37:09.286Z,6.93
2022-09-11T08:39:37.555Z,5.90
2022-09-11T08:42:13.080Z,6.30
2022-09-11T08:44:50.009Z,6.75
2022-09-11T08:47:35.281Z,6.18
2022-09-11T08:50:26.823Z,5.28
2022-09-11T08:52:56.576Z,5.00
2022-09-11T08:55:40.031Z,5.55
2022-09-11T08:58:31.703Z,5.50
2022-09-11T09:01:24.465Z,7.97
2022-09-11T09:04:04.607Z,8.48
2022-09-11T09:06:43.740Z,7.93
2022-09-11T09:09:42.374Z,6.97
2022-09-11T09:12:26.732Z,7.57
2022-09-11T09:15:17.041Z,8.02
2022-09-11T09:17:56.946Z,6.38
2022-09-11T09:20:31.440Z,6.88
2022-09-11T09:23:03.636Z,6.60
2022-09-11T09:25:36.623Z,6.20
2022-09-11T09:28:13.966Z,6.57
2022-09-11T09:30:53.616Z,6.32
2022-09-11T09:34:02.955Z,5.72
2022-09-11T09:36:45.963Z,8.20
2022-09-11T09:39:15.947Z,7.18
2022-09-11T09:42:05.308Z,6.93
2022-09-11T09:44:38.205Z,5.45
2022-09-11T09:47:09.770Z,5.10
2022-09-11T09:49:37.533Z,4.72
2022-09-11T09:52:30.607Z,4.13
2022-09-11T09:55:01.198Z,4.45
2022-09-11T09:57:40.025Z,4.45
2022-09-11T10:00:16.310Z,3.75
2022-09-11T10:02:54.766Z,4.45
2022-09-11T10:05:28.946Z,3.72
2022-09-11T10:08:03.905Z,4.43
2022-09-11T10:10:39.350Z,3.90
2022-09-11T10:13:25.092Z,4.20
2022-09-11T10:16:04.178Z,3.22
2022-09-11T10:18:36.124Z,3.38
2022-09-11T10:21:12.120Z,3.50
2022-09-11T10:23:56.807Z,2.95
2022-09-11T10:26:43.737Z,4.10
2022-09-11T10:29:21.246Z,3.25
2022-09-11T10:31:54.795Z,4.35
2022-09-11T10:34:25.064Z,4.22
2022-09-11T10:53:23.384Z,6.32
2022-09-11T10:56:00.790Z,9.70
2022-09-11T10:58:33.558Z,7.15
2022-09-11T11:01:01.546Z,7.07
2022-09-11T11:03:29.386Z,5.90
2022-09-11T11:06:34.473Z,5.78
2022-09-11T11:09:24.263Z,5.82
2022-09-11T11:12:10.035Z,5.15
2022-09-11T11:15:05.247Z,5.32
2022-09-11T11:17:54.232Z,4.78
2022-09-11T11:20:23.813Z,5.10
2022-09-11T11:23:28.979Z,5.18
2022-09-11T11:26:14.261Z,4.53
2022-09-11T11:29:04.178Z,4.78
2022-09-11T11:31:55.725Z,4.95
2022-09-11T11:35:01.580Z,4.57
2022-09-11T11:37:40.339Z,4.35
2022-09-11T11:40:20.995Z,4.47
2022-09-11T11:42:56.672Z,3.50
2022-09-11T11:45:43.642Z,4.18
2022-09-11T11:48:21.162Z,4.30
2022-09-11T11:50:53.337Z,3.72
2022-09-11T11:56:14.765Z,4.72
2022-09-11T11:59:02.791Z,4.22
2022-09-11T12:01:40.639Z,3.92
2022-09-11T12:04:29.428Z,3.40
2022-09-11T12:06:56.515Z,4.15
2022-09-11T12:09:23.653Z,3.85
2022-09-11T12:11:53.052Z,3.47
2022-09-11T12:14:34.356Z,3.22
2022-09-11T12:17:20.103Z,2.57
2022-09-11T12:20:41.719Z,3.13
2022-09-11T12:23:29.242Z,3.25
2022-09-11T12:26:10.988Z,3.00
2022-09-11T12:28:38.197Z,2.67
2022-09-11T12:31:07.573Z,3.15
2022-09-11T12:33:44.267Z,2.95
2022-09-11T12:36:24.477Z,3.33
2022-09-11T12:39:01.624Z,2.70
2022-09-11T12:41:36.154Z,2.70
2022-09-11T12:44:05.094Z,2.85
2022-09-11T12:46:31.967Z,2.67
2022-09-11T12:49:23.289Z,2.90
2022-09-11T12:51:55.193Z,3.00
2022-09-11T12:54:30.466Z,3.33
2022-09-11T12:57:30.793Z,2.92
2022-09-11T13:00:01.850Z,2.55
2022-09-11T13:02:36.683Z,2.78
2022-09-11T13:05:19.627Z,2.95
2022-09-11T13:07:53.579Z,2.85
2022-09-11T13:10:36.734Z,3.58
2022-09-11T13:13:34.799Z,2.72
2022-09-11T13:16:44.763Z,2.35
2022-09-11T13:19:20.790Z,2.40
2022-09-11T13:21:52.018Z,2.05
2022-09-11T13:24:30.832Z,2.80
2022-09-11T13:27:13.154Z,2.33
2022-09-11T13:29:42.866Z,2.20
2022-09-11T13:32:16.111Z,2.33
2022-09-11T13:34:45.074Z,1.90
2022-09-11T13:37:16.170Z,1.70
2022-09-11T13:39:44.024Z,1.93
2022-09-11T13:42:16.872Z,2.03
2022-09-11T13:44:49.136Z,2.40
2022-09-11T13:47:27.733Z,1.88
2022-09-11T13:50:02.030Z,2.17
2022-09-11T13:52:32.320Z,2.30
2022-09-11T13:55:04.509Z,2.00
2022-09-11T13:57:32.200Z,2.53
2022-09-11T14:00:00.969Z,2.13
2022-09-11T14:02:34.688Z,1.75
2022-09-11T14:05:27.158Z,1.67
2022-09-11T14:10:30.691Z,1.70
2022-09-11T14:13:18.061Z,1.70
2022-09-11T14:15:51.997Z,1.83
2022-09-11T14:18:33.262Z,1.27
2022-09-11T14:21:07.061Z,1.40
2022-09-11T14:23:45.836Z,1.33
2022-09-11T14:26:19.002Z,1.23
2022-09-11T14:29:21.703Z,1.25
2022-09-11T14:31:51.883Z,1.20
2022-09-11T14:34:30.396Z,1.13
2022-09-11T14:37:10.191Z,1.60
2022-09-11T14:39:41.779Z,1.25
2022-09-11T14:42:13.527Z,1.17
2022-09-11T14:44:42.194Z,1.15
2022-09-11T14:47:17.534Z,1.63
2022-09-11T14:49:45.389Z,1.17
2022-09-11T14:52:24.094Z,1.30
2022-09-11T14:54:51.021Z,0.95
2022-09-11T14:57:21.102Z,1.33
2022-09-11T14:59:51.246Z,1.25
2022-09-11T15:02:24.833Z,1.20
2022-09-11T15:04:55.198Z,1.20
2022-09-11T15:07:25.858Z,1.52
2022-09-11T15:09:54.154Z,1.30
2022-09-11T15:12:21.750Z,0.90
2022-09-11T15:14:58.418Z,0.90
2022-09-11T15:17:31.692Z,0.80
2022-09-11T15:19:59.998Z,1.00
2022-09-11T15:22:26.904Z,0.80
2022-09-11T15:24:53.863Z,0.80
2022-09-11T15:27:23.368Z,1.10
2022-09-11T15:29:50.749Z,1.10
2022-09-11T15:32:17.858Z,1.30
2022-09-11T15:34:45.336Z,1.00
2022-09-11T15:37:12.340Z,1.20
2022-09-11T15:39:39.424Z,1.08
2022-09-11T15:42:07.497Z,1.00
2022-09-11T15:44:35.985Z,0.98
2022-09-11T15:47:04.213Z,1.40
2022-09-11T15:49:31.768Z,1.08
2022-09-11T15:51:59.700Z,1.10
2022-09-11T15:54:27.556Z,1.23
2022-09-11T15:56:55.035Z,1.40
2022-09-11T15:59:22.966Z,1.15
2022-09-11T16:01:49.939Z,1.10
2022-09-11T16:04:23.238Z,1.33
2022-09-11T16:06:50.472Z,1.42
2022-09-11T16:09:30.362Z,1.80
2022-09-11T16:12:00.234Z,1.70
2022-09-11T16:14:33.216Z,1.67
2022-09-11T16:17:02.974Z,1.70
2022-09-11T16:19:30.962Z,1.13
2022-09-11T16:22:01.017Z,1.40
2022-09-11T16:24:31.125Z,1.88
2022-09-11T16:26:58.609Z,1.60
2022-09-11T16:29:43.964Z,1.40
2022-09-11T16:32:28.309Z,1.60
2022-09-11T16:34:57.246Z,1.17
2022-09-11T16:37:24.661Z,1.85
2022-09-11T16:39:51.757Z,1.35
2022-09-11T16:42:21.242Z,1.45
2022-09-11T16:44:49.748Z,1.40
2022-09-11T16:47:19.891Z,1.30
2022-09-11T16:50:10.046Z,1.02
2022-09-11T16:52:39.037Z,1.42
2022-09-11T16:55:08.097Z,1.45
2022-09-11T16:57:35.427Z,1.20
2022-09-11T17:00:04.280Z,1.40
2022-09-11T17:02:33.968Z,1.30
2022-09-11T17:05:03.639Z,1.20
2022-09-11T17:07:31.419Z,0.93
2022-09-11T17:09:58.782Z,1.20
2022-09-11T17:12:25.881Z,1.27
2022-09-11T17:14:53.068Z,1.45
2022-09-11T17:17:20.397Z,1.38
2022-09-11T17:19:47.625Z,1.40
2022-09-11T17:22:15.334Z,1.60
2022-09-11T17:24:42.590Z,1.38
2022-09-11T17:27:11.802Z,1.55
2022-09-11T17:29:43.798Z,1.20
2022-09-11T17:32:27.333Z,1.30
2022-09-11T17:34:55.307Z,1.30
2022-09-11T17:37:23.154Z,1.40
2022-09-11T17:39:50.443Z,1.00
2022-09-11T17:42:17.622Z,1.20
2022-09-11T17:44:44.664Z,1.00
2022-09-11T17:47:11.656Z,1.48
2022-09-11T17:49:38.578Z,1.55
2022-09-11T17:52:05.726Z,1.42
2022-09-11T17:54:32.730Z,1.50
2022-09-11T17:56:59.769Z,1.40
2022-09-11T17:59:26.914Z,1.67
2022-09-11T18:01:56.436Z,1.50
2022-09-11T18:04:23.602Z,1.60
2022-09-11T18:06:51.289Z,1.30
2022-09-11T18:09:19.861Z,1.50
2022-09-11T18:11:49.841Z,1.42
2022-09-11T18:14:18.576Z,2.25
2022-09-11T18:16:47.901Z,2.03
2022-09-11T18:19:16.812Z,2.40
2022-09-11T18:21:49.301Z,2.47
2022-09-11T18:24:21.377Z,2.20
2022-09-11T18:26:51.187Z,1.73
2022-09-11T18:29:20.713Z,1.77
2022-09-11T18:31:51.558Z,2.33
2022-09-11T18:34:23.059Z,1.83
2022-09-11T18:36:49.991Z,2.28
2022-09-11T18:39:18.984Z,1.83
2022-09-11T18:41:48.202Z,1.73
2022-09-11T18:44:20.088Z,2.03
2022-09-11T18:46:48.203Z,1.95
2022-09-11T18:49:16.413Z,2.00
2022-09-11T18:51:43.771Z,1.77
2022-09-11T18:54:15.901Z,1.92
2022-09-11T18:56:47.709Z,2.42
2022-09-11T18:59:16.517Z,1.58
2022-09-11T19:01:43.714Z,1.83
2022-09-11T19:04:12.568Z,2.28
2022-09-11T19:06:40.337Z,2.05
2022-09-11T19:09:10.447Z,2.10
2022-09-11T19:11:38.306Z,2.28
2022-09-11T19:14:07.811Z,1.80
2022-09-11T19:16:36.016Z,1.70
2022-09-11T19:19:03.600Z,2.10
2022-09-11T19:21:30.598Z,2.10
2022-09-11T19:24:00.622Z,2.47
2022-09-11T19:26:39.614Z,2.40
2022-09-11T19:29:08.821Z,2.40
2022-09-11T19:31:36.943Z,2.35
2022-09-11T19:34:03.917Z,2.13
2022-09-11T19:36:32.953Z,2.47
2022-09-11T19:39:00.705Z,2.70
2022-09-11T19:41:30.617Z,2.78
2022-09-11T19:44:05.755Z,2.70
2022-09-11T19:46:34.807Z,2.05
2022-09-11T19:49:05.610Z,2.33
2022-09-11T19:51:36.074Z,2.38
2022-09-11T19:54:04.071Z,2.33
2022-09-11T19:56:33.782Z,2.83
2022-09-11T19:59:01.213Z,2.90
2022-09-11T20:01:30.131Z,2.33
2022-09-11T20:03:58.180Z,2.38
2022-09-11T20:06:27.546Z,2.53
2022-09-11T20:09:13.393Z,2.70
2022-09-11T20:11:42.222Z,2.65
2022-09-11T20:14:10.034Z,2.58
2022-09-11T20:16:37.051Z,2.70
2022-09-11T20:19:06.319Z,2.58
2022-09-11T20:21:35.386Z,2.80
2022-09-11T20:24:03.149Z,3.13
2022-09-11T20:26:31.091Z,2.95
2022-09-11T20:29:02.077Z,2.63
2022-09-11T20:31:31.971Z,3.00
2022-09-11T20:34:00.761Z,2.65
2022-09-11T20:36:30.063Z,2.97
2022-09-11T20:39:00.089Z,2.70
2022-09-11T20:41:30.165Z,2.67
2022-09-11T20:44:00.384Z,3.08
2022-09-11T20:46:27.622Z,2.72
2022-09-11T20:48:54.681Z,2.80
2022-09-11T20:51:22.978Z,2.70
2022-09-11T20:53:52.687Z,2.65
2022-09-11T20:56:22.458Z,3.35
2022-09-11T20:58:49.916Z,3.10
2022-09-11T21:01:21.317Z,2.70
2022-09-11T21:03:50.954Z,2.90
2022-09-11T21:06:23.448Z,2.85
2022-09-11T21:08:55.394Z,2.50
2022-09-11T21:11:23.721Z,2.33
2022-09-11T21:13:50.877Z,2.78
2022-09-11T21:16:19.754Z,2.97
2022-09-11T21:18:52.752Z,2.75
2022-09-11T21:21:21.695Z,2.53
2022-09-11T21:23:49.260Z,2.67
2022-09-11T21:26:19.675Z,2.67
2022-09-11T21:28:46.652Z,2.50
2022-09-11T21:31:13.846Z,3.20
2022-09-11T21:33:41.024Z,2.95
2022-09-11T21:36:08.114Z,3.15
2022-09-11T21:38:36.225Z,3.17
2022-09-11T21:41:05.598Z,2.90
2022-09-11T21:43:32.670Z,3.05
2022-09-11T21:45:59.571Z,2.80
2022-09-11T21:48:26.825Z,2.80
2022-09-11T21:50:53.986Z,3.30
2022-09-11T21:53:21.468Z,3.63
2022-09-11T21:55:51.216Z,3.50
2022-09-11T21:58:20.488Z,3.65
2022-09-11T22:00:48.674Z,2.85
2022-09-11T22:03:18.662Z,3.67
2022-09-11T22:05:48.670Z,3.33
2022-09-11T22:08:17.929Z,3.55
2022-09-11T22:10:47.032Z,3.40
2022-09-11T22:13:23.816Z,3.25
2022-09-11T22:15:51.015Z,3.17
2022-09-11T22:18:21.087Z,2.65
2022-09-11T22:20:48.839Z,2.80
2022-09-11T22:23:17.995Z,3.42
2022-09-11T22:25:45.423Z,3.28
2022-09-11T22:28:12.927Z,3.67
2022-09-11T22:30:44.046Z,3.20
2022-09-11T22:33:11.199Z,3.75
2022-09-11T22:35:38.236Z,3.38
2022-09-11T22:38:05.168Z,3.50
2022-09-11T22:40:32.072Z,3.40
2022-09-11T22:42:58.926Z,3.78
2022-09-11T22:45:26.131Z,3.58
2022-09-11T22:47:53.060Z,3.17
2022-09-11T22:50:19.980Z,3.47
2022-09-11T22:52:46.988Z,3.47
2022-09-11T22:55:13.977Z,3.05
2022-09-11T22:57:40.958Z,3.38
2022-09-11T23:00:10.711Z,3.65
2022-09-11T23:02:38.127Z,3.47
2022-09-11T23:05:24.865Z,2.95
2022-09-11T23:07:52.776Z,3.25
2022-09-11T23:10:21.918Z,3.55
2022-09-11T23:12:49.343Z,3.67
2022-09-11T23:15:16.513Z,3.63
2022-09-11T23:17:44.078Z,3.28
2022-09-11T23:20:11.755Z,3.67
2022-09-11T23:22:38.651Z,3.13
2022-09-11T23:25:06.317Z,3.58
2022-09-11T23:27:33.360Z,3.67
2022-09-11T23:30:00.312Z,3.40
2022-09-11T23:32:27.151Z,3.63
2022-09-11T23:34:54.116Z,2.63
2022-09-11T23:37:21.040Z,3.00
2022-09-11T23:39:48.307Z,3.30
2022-09-11T23:42:15.245Z,3.00
2022-09-11T23:44:42.075Z,3.70
2022-09-11T23:47:09.078Z,3.70
2022-09-11T23:49:36.604Z,4.20
2022-09-11T23:52:04.607Z,3.60
2022-09-11T23:54:31.629Z,4.10
2022-09-11T23:56:59.062Z,3.47
2022-09-11T23:59:26.089Z,3.90
